createdAt,value
2018-01-29T00:02:16.709Z,9.83
2018-01-29T00:04:45.044Z,9.85
2018-01-29T00:07:13.379Z,9.83
2018-01-29T00:09:41.702Z,9.89
2018-01-29T00:12:10.032Z,9.84
2018-01-29T00:14:38.358Z,9.80
2018-01-29T00:17:06.688Z,9.78
2018-01-29T00:19:35.003Z,9.90
2018-01-29T00:22:03.337Z,9.87
2018-01-29T00:24:32.437Z,10.02
2018-01-29T00:27:00.763Z,9.85
2018-01-29T00:29:30.264Z,9.83
2018-01-29T00:31:58.589Z,9.92
2018-01-29T00:34:26.938Z,10.02
2018-01-29T00:36:55.280Z,10.05
2018-01-29T00:39:23.595Z,9.73
2018-01-29T00:41:51.924Z,9.89
2018-01-29T00:44:20.251Z,9.90
2018-01-29T00:46:49.344Z,9.70
2018-01-29T00:49:17.686Z,9.73
2018-01-29T00:51:46.020Z,9.94
2018-01-29T00:54:14.343Z,9.87
2018-01-29T00:56:42.667Z,9.84
2018-01-29T00:59:10.989Z,9.75
2018-01-29T01:01:39.298Z,9.77
2018-01-29T01:04:07.626Z,9.80
2018-01-29T01:06:35.941Z,9.84
2018-01-29T01:09:04.272Z,9.82
2018-01-29T01:11:32.601Z,9.90
2018-01-29T01:14:00.934Z,9.89
2018-01-29T01:16:29.260Z,9.95
2018-01-29T01:18:57.588Z,9.89
2018-01-29T01:21:25.916Z,10.05
2018-01-29T01:23:54.237Z,10.14
2018-01-29T01:26:22.576Z,10.11
2018-01-29T01:28:50.923Z,10.10
2018-01-29T01:31:19.244Z,10.27
2018-01-29T01:33:47.632Z,10.25
2018-01-29T01:36:15.927Z,10.21
2018-01-29T01:38:44.264Z,10.13
2018-01-29T01:41:13.372Z,10.18
2018-01-29T01:43:41.717Z,10.06
2018-01-29T01:46:10.046Z,10.07
2018-01-29T01:48:38.362Z,10.20
2018-01-29T01:51:06.705Z,9.95
2018-01-29T01:53:35.022Z,10.03
2018-01-29T01:56:03.350Z,10.05
2018-01-29T01:58:32.055Z,10.02
2018-01-29T02:01:00.400Z,10.19
2018-01-29T02:03:28.736Z,10.00
2018-01-29T02:05:57.064Z,10.09
2018-01-29T02:08:25.392Z,10.11
2018-01-29T02:10:53.717Z,10.08
2018-01-29T02:13:22.044Z,9.96
2018-01-29T02:15:51.923Z,9.96
2018-01-29T02:18:20.235Z,9.90
2018-01-29T02:20:48.571Z,9.83
2018-01-29T02:23:17.512Z,9.76
2018-01-29T02:25:45.847Z,9.69
2018-01-29T02:28:14.185Z,9.79
2018-01-29T02:30:42.517Z,9.72
2018-01-29T02:33:10.856Z,9.79
2018-01-29T02:35:39.175Z,9.82
2018-01-29T02:38:07.503Z,9.79
2018-01-29T02:40:36.636Z,9.78
2018-01-29T02:43:04.950Z,9.86
2018-01-29T02:45:33.266Z,9.76
2018-01-29T02:48:02.358Z,9.74
2018-01-29T02:50:31.477Z,9.70
2018-01-29T02:52:59.791Z,9.71
2018-01-29T02:55:28.117Z,9.72
2018-01-29T02:57:56.425Z,9.48
2018-01-29T03:00:24.744Z,9.64
2018-01-29T03:02:53.146Z,9.69
2018-01-29T03:05:22.486Z,9.62
2018-01-29T03:07:50.801Z,9.53
2018-01-29T03:10:19.124Z,9.51
2018-01-29T03:12:47.438Z,9.58
2018-01-29T03:15:15.754Z,9.60
2018-01-29T03:17:44.075Z,9.50
2018-01-29T03:20:12.409Z,9.63
2018-01-29T03:22:40.725Z,9.70
2018-01-29T03:25:09.056Z,9.69
2018-01-29T03:27:37.382Z,9.74
2018-01-29T03:30:05.782Z,9.65
2018-01-29T03:32:34.116Z,9.66
2018-01-29T03:35:02.442Z,9.60
2018-01-29T03:37:30.819Z,9.68
2018-01-29T03:39:59.136Z,9.68
2018-01-29T03:42:27.476Z,9.63
2018-01-29T03:44:55.804Z,9.57
2018-01-29T03:47:24.127Z,9.68
2018-01-29T03:49:52.465Z,9.67
2018-01-29T03:52:20.779Z,9.70
2018-01-29T03:54:49.099Z,9.74
2018-01-29T03:57:17.410Z,9.75
2018-01-29T03:59:45.729Z,9.60
2018-01-29T04:02:14.058Z,9.68
2018-01-29T04:04:42.395Z,9.51
2018-01-29T04:07:10.710Z,9.69
2018-01-29T04:09:39.039Z,9.68
2018-01-29T04:12:07.358Z,9.65
2018-01-29T04:14:35.674Z,9.70
2018-01-29T04:17:04.008Z,9.61
2018-01-29T04:19:32.317Z,9.81
2018-01-29T04:22:00.611Z,9.75
2018-01-29T04:24:28.939Z,9.70
2018-01-29T04:26:57.235Z,9.71
2018-01-29T04:29:25.895Z,9.48
2018-01-29T04:31:54.220Z,9.56
2018-01-29T04:34:22.526Z,9.64
2018-01-29T04:36:51.599Z,9.48
2018-01-29T04:39:19.929Z,9.50
2018-01-29T04:41:48.253Z,9.56
2018-01-29T04:44:16.776Z,9.72
2018-01-29T04:46:45.290Z,9.55
2018-01-29T04:49:13.628Z,9.37
2018-01-29T04:51:41.962Z,9.56
2018-01-29T04:54:10.282Z,9.61
2018-01-29T04:56:39.296Z,9.62
2018-01-29T04:59:07.624Z,9.68
2018-01-29T05:01:35.934Z,9.64
2018-01-29T05:04:04.247Z,9.67
2018-01-29T05:06:32.573Z,9.53
2018-01-29T05:09:00.901Z,9.48
2018-01-29T05:11:29.469Z,9.50
2018-01-29T05:13:57.818Z,9.42
2018-01-29T05:16:26.915Z,9.46
2018-01-29T05:18:55.252Z,9.58
2018-01-29T05:21:23.698Z,9.56
2018-01-29T05:23:52.018Z,9.56
2018-01-29T05:26:20.352Z,9.53
2018-01-29T05:28:48.688Z,9.67
2018-01-29T05:31:17.790Z,9.61
2018-01-29T05:33:46.102Z,9.52
2018-01-29T05:36:17.296Z,9.53
2018-01-29T05:38:49.655Z,9.46
2018-01-29T05:41:17.975Z,9.55
2018-01-29T05:43:46.287Z,9.49
2018-01-29T05:46:14.610Z,9.58
2018-01-29T05:48:42.936Z,9.69
2018-01-29T05:51:11.276Z,9.62
2018-01-29T05:53:39.584Z,9.64
2018-01-29T05:56:07.903Z,9.61
2018-01-29T05:58:36.236Z,9.54
2018-01-29T06:01:04.581Z,9.61
2018-01-29T06:03:32.908Z,9.64
2018-01-29T06:06:01.226Z,9.51
2018-01-29T06:08:29.576Z,9.56
2018-01-29T06:10:57.891Z,9.56
2018-01-29T06:13:26.983Z,9.54
2018-01-29T06:15:57.227Z,9.48
2018-01-29T06:18:25.538Z,9.57
2018-01-29T06:20:53.854Z,9.62
2018-01-29T06:23:22.943Z,9.53
2018-01-29T06:25:51.259Z,9.58
2018-01-29T06:28:19.570Z,9.52
2018-01-29T06:30:47.896Z,9.62
2018-01-29T06:33:16.231Z,9.64
2018-01-29T06:35:44.572Z,9.63
2018-01-29T06:38:12.896Z,9.68
2018-01-29T06:40:41.231Z,9.60
2018-01-29T06:43:09.561Z,9.64
2018-01-29T06:45:37.873Z,9.67
2018-01-29T06:48:06.178Z,9.55
2018-01-29T06:50:34.508Z,9.51
2018-01-29T06:53:03.402Z,9.73
2018-01-29T06:55:31.754Z,9.63
2018-01-29T06:58:00.066Z,9.70
2018-01-29T07:00:28.409Z,9.62
2018-01-29T07:02:56.726Z,9.60
2018-01-29T07:05:25.072Z,9.66
2018-01-29T07:07:53.409Z,9.72
2018-01-29T07:10:22.492Z,9.70
2018-01-29T07:12:50.823Z,9.63
2018-01-29T07:15:19.281Z,9.71
2018-01-29T07:17:48.987Z,9.76
2018-01-29T07:20:18.321Z,9.60
2018-01-29T07:22:47.842Z,9.52
2018-01-29T07:25:16.357Z,9.61
2018-01-29T07:27:44.692Z,9.75
2018-01-29T07:30:14.562Z,9.71
2018-01-29T07:32:42.874Z,9.68
2018-01-29T07:35:11.202Z,9.73
2018-01-29T07:37:39.572Z,9.57
2018-01-29T07:40:08.374Z,9.67
2018-01-29T07:42:36.752Z,9.62
2018-01-29T07:45:05.099Z,9.59
2018-01-29T07:47:33.426Z,9.61
2018-01-29T07:50:01.751Z,9.65
2018-01-29T07:52:30.076Z,9.56
2018-01-29T07:54:58.397Z,9.66
2018-01-29T07:57:27.468Z,9.66
2018-01-29T07:59:55.793Z,9.57
2018-01-29T08:02:24.128Z,9.67
2018-01-29T08:04:52.469Z,9.54
2018-01-29T08:07:20.796Z,9.64
2018-01-29T08:09:50.009Z,9.75
2018-01-29T08:12:19.327Z,9.80
2018-01-29T08:14:47.642Z,9.63
2018-01-29T08:17:15.962Z,9.79
2018-01-29T08:19:45.210Z,9.67
2018-01-29T08:22:15.265Z,9.77
2018-01-29T08:24:43.590Z,9.84
2018-01-29T08:27:11.903Z,9.62
2018-01-29T08:29:40.212Z,9.87
2018-01-29T08:32:08.516Z,9.80
2018-01-29T08:34:36.828Z,9.93
2018-01-29T08:37:05.154Z,9.81
2018-01-29T08:39:33.473Z,9.78
2018-01-29T08:42:01.778Z,9.82
2018-01-29T08:44:30.110Z,9.90
2018-01-29T08:46:58.440Z,9.84
2018-01-29T08:49:26.767Z,9.87
2018-01-29T08:51:55.097Z,9.77
2018-01-29T08:54:24.197Z,9.73
2018-01-29T08:56:52.535Z,9.73
2018-01-29T08:59:21.146Z,9.82
2018-01-29T09:01:51.384Z,9.76
2018-01-29T09:04:20.515Z,9.87
2018-01-29T09:06:48.837Z,10.07
2018-01-29T09:09:17.813Z,9.95
2018-01-29T09:11:46.144Z,10.02
2018-01-29T09:14:14.484Z,10.12
2018-01-29T09:16:44.499Z,10.12
2018-01-29T09:19:12.852Z,10.21
2018-01-29T09:21:41.198Z,10.10
2018-01-29T09:24:09.540Z,10.17
2018-01-29T09:26:38.648Z,10.14
2018-01-29T09:29:06.974Z,10.17
2018-01-29T09:31:35.321Z,10.25
2018-01-29T09:34:03.756Z,10.13
2018-01-29T09:36:32.102Z,9.99
2018-01-29T09:39:00.476Z,9.91
2018-01-29T09:41:28.802Z,10.12
2018-01-29T09:43:57.887Z,9.91
2018-01-29T09:46:26.221Z,9.83
2018-01-29T09:48:54.538Z,10.15
2018-01-29T09:51:22.892Z,10.04
2018-01-29T09:53:52.159Z,10.06
2018-01-29T09:56:21.383Z,10.05
2018-01-29T09:58:49.716Z,10.02
2018-01-29T10:01:18.051Z,9.94
2018-01-29T10:03:46.409Z,10.07
2018-01-29T10:06:14.711Z,10.03
2018-01-29T10:08:43.045Z,10.00
2018-01-29T10:11:11.372Z,10.17
2018-01-29T10:13:39.704Z,10.20
2018-01-29T10:16:08.023Z,10.27
2018-01-29T10:18:36.362Z,10.26
2018-01-29T10:21:04.697Z,10.33
2018-01-29T10:23:33.778Z,10.17
2018-01-29T10:26:02.104Z,10.15
2018-01-29T10:28:30.420Z,10.09
2018-01-29T10:30:58.768Z,10.21
2018-01-29T10:33:27.116Z,10.11
2018-01-29T10:35:55.451Z,10.23
2018-01-29T10:38:23.797Z,10.16
2018-01-29T10:40:52.123Z,10.08
2018-01-29T10:43:20.460Z,10.12
2018-01-29T10:45:48.784Z,10.09
2018-01-29T10:48:17.108Z,10.21
2018-01-29T10:50:45.479Z,10.35
2018-01-29T10:53:13.872Z,10.37
2018-01-29T10:55:42.190Z,10.20
2018-01-29T10:58:10.517Z,10.23
2018-01-29T11:00:44.778Z,10.19
2018-01-29T11:03:13.116Z,10.33
2018-01-29T11:05:41.452Z,10.25
2018-01-29T11:08:09.786Z,10.18
2018-01-29T11:10:38.128Z,9.93
2018-01-29T11:13:06.450Z,10.10
2018-01-29T11:15:34.795Z,10.14
2018-01-29T11:18:03.136Z,10.22
2018-01-29T11:20:31.478Z,10.07
2018-01-29T11:22:59.818Z,10.08
2018-01-29T11:25:28.143Z,10.17
2018-01-29T11:27:56.487Z,10.18
2018-01-29T11:30:24.830Z,10.22
2018-01-29T11:32:53.926Z,10.02
2018-01-29T11:35:22.886Z,10.04
2018-01-29T11:37:51.215Z,9.99
2018-01-29T11:40:19.534Z,9.97
2018-01-29T11:42:47.850Z,9.93
2018-01-29T11:45:16.198Z,9.72
2018-01-29T11:47:44.543Z,9.92
2018-01-29T11:50:13.185Z,9.85
2018-01-29T11:52:41.502Z,9.88
2018-01-29T11:55:09.835Z,9.96
2018-01-29T11:57:39.966Z,9.91
2018-01-29T12:00:09.062Z,10.09
2018-01-29T12:02:38.151Z,10.01
2018-01-29T12:05:06.492Z,10.04
2018-01-29T12:07:36.076Z,10.09
2018-01-29T12:10:04.412Z,10.09
2018-01-29T12:12:33.535Z,10.09
2018-01-29T12:15:01.879Z,10.17
2018-01-29T12:17:30.234Z,10.32
2018-01-29T12:19:58.566Z,10.29
2018-01-29T12:22:26.904Z,10.30
2018-01-29T12:24:55.256Z,10.25
2018-01-29T12:27:23.583Z,10.15
2018-01-29T12:29:51.937Z,10.13
2018-01-29T12:32:20.266Z,9.98
2018-01-29T12:34:49.862Z,10.03
2018-01-29T12:37:18.198Z,10.09
2018-01-29T12:39:46.541Z,10.07
2018-01-29T12:42:14.885Z,10.13
2018-01-29T12:44:43.263Z,10.08
2018-01-29T12:47:12.360Z,9.98
2018-01-29T12:49:40.683Z,9.88
2018-01-29T12:52:09.005Z,10.00
2018-01-29T12:54:38.108Z,9.82
2018-01-29T12:57:06.431Z,10.04
2018-01-29T12:59:34.755Z,9.91
2018-01-29T13:02:03.848Z,9.94
2018-01-29T13:04:32.201Z,10.02
2018-01-29T13:07:00.540Z,9.86
2018-01-29T13:09:28.872Z,9.95
2018-01-29T13:11:57.193Z,9.96
2018-01-29T13:14:25.541Z,10.02
2018-01-29T13:16:53.872Z,9.78
2018-01-29T13:19:22.226Z,9.80
2018-01-29T13:21:50.564Z,9.91
2018-01-29T13:24:18.894Z,10.10
2018-01-29T13:26:47.219Z,10.16
2018-01-29T13:29:16.318Z,10.01
2018-01-29T13:31:44.638Z,9.89
2018-01-29T13:34:12.966Z,9.96
2018-01-29T13:36:42.278Z,10.17
2018-01-29T13:39:11.393Z,10.13
2018-01-29T13:41:39.737Z,9.89
2018-01-29T13:44:08.235Z,10.00
2018-01-29T13:46:36.565Z,10.04
2018-01-29T13:49:04.900Z,9.78
2018-01-29T13:51:33.233Z,9.93
2018-01-29T13:54:02.511Z,10.00
2018-01-29T13:56:30.844Z,9.93
2018-01-29T13:58:59.971Z,10.01
2018-01-29T14:01:28.316Z,10.11
2018-01-29T14:03:56.641Z,10.06
2018-01-29T14:06:24.971Z,10.05
2018-01-29T14:08:54.067Z,10.16
2018-01-29T14:11:22.412Z,9.86
2018-01-29T14:13:50.721Z,9.94
2018-01-29T14:16:19.814Z,10.02
2018-01-29T14:18:48.152Z,10.04
2018-01-29T14:21:16.471Z,9.93
2018-01-29T14:23:45.594Z,10.10
2018-01-29T14:26:13.928Z,10.07
2018-01-29T14:28:42.247Z,10.13
2018-01-29T14:31:10.591Z,10.10
2018-01-29T14:33:39.668Z,10.02
2018-01-29T14:36:08.002Z,10.02
2018-01-29T14:38:36.326Z,9.90
2018-01-29T14:41:04.677Z,9.87
2018-01-29T14:43:32.985Z,9.96
2018-01-29T14:46:01.879Z,9.92
2018-01-29T14:48:30.215Z,9.92
2018-01-29T14:50:58.530Z,9.99
2018-01-29T14:53:26.851Z,9.80
2018-01-29T14:55:55.196Z,10.12
2018-01-29T14:58:23.540Z,10.15
2018-01-29T15:00:51.896Z,10.19
2018-01-29T15:03:20.240Z,10.08
2018-01-29T15:05:48.572Z,10.01
2018-01-29T15:08:16.926Z,10.18
2018-01-29T15:10:45.270Z,10.31
2018-01-29T15:13:14.373Z,10.19
2018-01-29T15:15:42.706Z,10.09
2018-01-29T15:18:11.054Z,10.17
2018-01-29T15:20:39.393Z,10.08
2018-01-29T15:23:08.502Z,10.18
2018-01-29T15:25:37.608Z,10.18
2018-01-29T15:28:05.940Z,9.96
2018-01-29T15:30:34.270Z,9.88
2018-01-29T15:33:02.586Z,9.83
2018-01-29T15:35:30.928Z,9.68
2018-01-29T15:37:59.246Z,9.82
2018-01-29T15:40:27.589Z,9.90
2018-01-29T15:42:55.934Z,9.92
2018-01-29T15:45:25.374Z,10.08
2018-01-29T15:47:53.719Z,10.09
2018-01-29T15:50:22.881Z,10.08
2018-01-29T15:52:51.180Z,10.01
2018-01-29T15:55:19.517Z,9.72
2018-01-29T15:57:47.856Z,9.86
2018-01-29T16:00:16.213Z,9.92
2018-01-29T16:02:45.306Z,9.91
2018-01-29T16:05:13.640Z,10.10
2018-01-29T16:07:41.958Z,10.16
2018-01-29T16:10:11.055Z,10.00
2018-01-29T16:12:40.516Z,10.04
2018-01-29T16:15:08.860Z,9.86
2018-01-29T16:17:37.187Z,9.84
2018-01-29T16:20:05.514Z,9.68
2018-01-29T16:22:33.830Z,9.95
2018-01-29T16:25:02.918Z,9.91
2018-01-29T16:27:31.220Z,9.85
2018-01-29T16:29:59.536Z,9.83
2018-01-29T16:32:29.335Z,9.79
2018-01-29T16:34:57.654Z,9.79
2018-01-29T16:37:25.970Z,9.92
2018-01-29T16:39:54.313Z,9.93
2018-01-29T16:42:22.650Z,9.99
2018-01-29T16:44:51.752Z,10.01
2018-01-29T16:47:20.091Z,9.93
2018-01-29T16:49:48.427Z,9.77
2018-01-29T16:52:16.756Z,9.76
2018-01-29T16:54:45.130Z,9.82
2018-01-29T16:57:13.507Z,9.93
2018-01-29T16:59:41.876Z,9.78
2018-01-29T17:02:10.197Z,9.68
2018-01-29T17:04:38.510Z,9.80
2018-01-29T17:07:06.817Z,9.71
2018-01-29T17:09:35.158Z,9.74
2018-01-29T17:12:03.487Z,9.62
2018-01-29T17:14:31.838Z,9.77
2018-01-29T17:17:00.196Z,9.59
2018-01-29T17:19:28.544Z,9.44
2018-01-29T17:21:56.877Z,9.57
2018-01-29T17:24:25.220Z,9.44
2018-01-29T17:26:53.597Z,9.52
2018-01-29T17:29:21.949Z,9.54
2018-01-29T17:31:50.303Z,9.30
2018-01-29T17:34:19.420Z,9.38
2018-01-29T17:36:47.755Z,9.14
2018-01-29T17:39:16.099Z,9.23
2018-01-29T17:41:44.450Z,9.09
2018-01-29T17:44:12.767Z,9.09
2018-01-29T17:46:42.309Z,8.93
2018-01-29T17:49:10.954Z,8.95
2018-01-29T17:51:39.614Z,8.97
2018-01-29T17:54:08.015Z,8.70
2018-01-29T17:56:36.939Z,8.60
2018-01-29T17:59:05.925Z,8.66
2018-01-29T18:01:35.206Z,8.68
2018-01-29T18:04:04.354Z,8.70
2018-01-29T18:06:32.941Z,8.68
2018-01-29T18:09:03.116Z,8.64
2018-01-29T18:11:31.783Z,8.76
2018-01-29T18:14:00.948Z,8.73
2018-01-29T18:16:30.487Z,8.62
2018-01-29T18:19:01.009Z,8.58
2018-01-29T18:21:31.516Z,8.64
2018-01-29T18:24:01.306Z,8.44
2018-01-29T18:26:30.959Z,8.59
2018-01-29T18:29:00.899Z,8.57
2018-01-29T18:31:30.911Z,8.71
2018-01-29T18:34:00.711Z,8.67
2018-01-29T18:36:29.977Z,8.81
2018-01-29T18:38:59.845Z,8.75
2018-01-29T18:41:29.744Z,8.56
2018-01-29T18:43:59.619Z,8.81
2018-01-29T18:46:29.437Z,8.75
2018-01-29T18:48:59.279Z,8.67
2018-01-29T18:51:29.069Z,8.79
2018-01-29T18:53:58.918Z,8.69
2018-01-29T18:56:28.741Z,8.56
2018-01-29T18:58:58.516Z,8.61
2018-01-29T19:01:29.432Z,8.64
2018-01-29T19:03:59.470Z,8.62
2018-01-29T19:06:30.137Z,8.62
2018-01-29T19:09:00.172Z,8.64
2018-01-29T19:11:30.100Z,8.74
2018-01-29T19:14:00.927Z,8.83
2018-01-29T19:16:30.847Z,8.78
2018-01-29T19:19:00.664Z,8.79
2018-01-29T19:21:30.680Z,8.80
2018-01-29T19:24:00.803Z,8.77
2018-01-29T19:26:30.788Z,8.70
2018-01-29T19:29:00.680Z,8.80
2018-01-29T19:31:30.501Z,8.73
2018-01-29T19:34:00.331Z,8.72
2018-01-29T19:36:30.210Z,8.65
2018-01-29T19:39:00.532Z,8.75
2018-01-29T19:41:30.369Z,8.69
2018-01-29T19:44:00.299Z,8.72
2018-01-29T19:46:30.207Z,8.70
2018-01-29T19:49:01.268Z,8.70
2018-01-29T19:51:31.445Z,8.54
2018-01-29T19:54:02.208Z,8.68
2018-01-29T19:56:33.117Z,8.58
2018-01-29T19:59:03.082Z,8.81
2018-01-29T20:01:33.149Z,8.86
2018-01-29T20:04:03.039Z,8.69
2018-01-29T20:06:33.634Z,8.82
2018-01-29T20:09:04.038Z,8.84
2018-01-29T20:11:33.912Z,8.79
2018-01-29T20:14:05.403Z,8.93
2018-01-29T20:16:36.299Z,9.04
2018-01-29T20:19:07.282Z,8.96
2018-01-29T20:21:37.154Z,8.95
2018-01-29T20:24:07.690Z,8.93
2018-01-29T20:26:37.580Z,9.04
2018-01-29T20:29:08.291Z,9.21
2018-01-29T20:31:38.304Z,9.10
2018-01-29T20:34:08.161Z,9.12
2018-01-29T20:36:39.492Z,9.21
2018-01-29T20:39:10.199Z,9.06
2018-01-29T20:41:40.980Z,9.08
2018-01-29T20:44:10.908Z,8.78
2018-01-29T20:46:40.853Z,8.59
2018-01-29T20:49:10.970Z,8.68
2018-01-29T20:51:40.856Z,8.22
2018-01-29T20:54:10.773Z,7.99
2018-01-29T20:56:41.838Z,7.82
2018-01-29T20:59:11.737Z,7.68
2018-01-29T21:01:41.643Z,7.65
2018-01-29T21:04:12.410Z,7.56
2018-01-29T21:06:43.484Z,7.48
2018-01-29T21:09:14.109Z,7.43
2018-01-29T21:11:44.032Z,7.35
2018-01-29T21:14:13.894Z,7.36
2018-01-29T21:16:44.304Z,7.34
2018-01-29T21:19:14.196Z,7.35
2018-01-29T21:21:44.444Z,7.29
2018-01-29T21:24:14.261Z,7.28
2018-01-29T21:26:44.622Z,7.29
2018-01-29T21:29:14.442Z,7.42
2018-01-29T21:31:44.259Z,7.22
2018-01-29T21:34:14.079Z,7.29
2018-01-29T21:36:44.730Z,7.38
2018-01-29T21:39:14.568Z,7.28
2018-01-29T21:41:44.508Z,7.43
2018-01-29T21:44:15.358Z,7.58
2018-01-29T21:46:45.728Z,7.40
2018-01-29T21:49:15.710Z,7.22
2018-01-29T21:51:45.539Z,7.24
2018-01-29T21:54:16.061Z,7.16
2018-01-29T21:56:46.609Z,7.08
2018-01-29T21:59:17.367Z,7.06
2018-01-29T22:01:47.701Z,6.96
2018-01-29T22:04:17.123Z,6.73
2018-01-29T22:06:46.603Z,6.75
2018-01-29T22:09:16.303Z,6.66
2018-01-29T22:11:44.763Z,6.54
2018-01-29T22:14:13.088Z,6.60
2018-01-29T22:16:41.428Z,6.56
2018-01-29T22:19:09.751Z,6.47
2018-01-29T22:21:38.128Z,6.54
2018-01-29T22:24:06.459Z,6.45
2018-01-29T22:26:35.007Z,6.53
2018-01-29T22:29:03.347Z,6.30
2018-01-29T22:31:31.729Z,6.21
2018-01-29T22:34:00.003Z,6.23
2018-01-29T22:36:28.322Z,6.20
2018-01-29T22:38:56.633Z,6.17
2018-01-29T22:41:24.954Z,6.15
2018-01-29T22:43:53.258Z,6.19
2018-01-29T22:46:22.368Z,6.07
2018-01-29T22:48:50.679Z,6.04
2018-01-29T22:51:18.994Z,6.01
2018-01-29T22:53:47.314Z,5.89
2018-01-29T22:56:15.635Z,5.96
2018-01-29T22:58:43.970Z,5.99
2018-01-29T23:01:12.296Z,6.00
2018-01-29T23:03:40.638Z,5.89
2018-01-29T23:06:08.973Z,5.73
2018-01-29T23:08:38.100Z,5.91
2018-01-29T23:11:06.447Z,5.80
2018-01-29T23:13:34.786Z,5.70
2018-01-29T23:16:03.113Z,5.71
2018-01-29T23:18:31.445Z,5.74
2018-01-29T23:20:59.776Z,5.45
2018-01-29T23:23:28.094Z,5.61
2018-01-29T23:25:56.436Z,5.58
2018-01-29T23:28:24.765Z,5.52
2018-01-29T23:30:53.089Z,5.35
2018-01-29T23:33:21.398Z,5.38
2018-01-29T23:35:49.718Z,5.25
2018-01-29T23:38:18.053Z,5.27
2018-01-29T23:40:46.370Z,5.23
2018-01-29T23:43:14.680Z,5.16
2018-01-29T23:45:43.011Z,5.18
2018-01-29T23:48:11.336Z,5.09
2018-01-29T23:50:39.646Z,5.13
2018-01-29T23:53:07.971Z,5.22
2018-01-29T23:55:37.186Z,5.12
2018-01-29T23:58:05.516Z,5.05
